sensor_id;sensor_type;location;lat;lon;timestamp;temperature;humidity
48589;DHT22;34369;51.174;6.738;2023-02-20T00:00:01;4.20;68.90
48589;DHT22;34369;51.174;6.738;2023-02-20T00:02:33;4.20;69.00
48589;DHT22;34369;51.174;6.738;2023-02-20T00:05:05;4.20;69.00
48589;DHT22;34369;51.174;6.738;2023-02-20T00:07:38;4.20;69.00
48589;DHT22;34369;51.174;6.738;2023-02-20T00:10:12;4.10;68.90
48589;DHT22;34369;51.174;6.738;2023-02-20T00:12:44;4.10;69.00
48589;DHT22;34369;51.174;6.738;2023-02-20T00:15:17;4.10;69.00
48589;DHT22;34369;51.174;6.738;2023-02-20T00:17:49;4.00;69.10
48589;DHT22;34369;51.174;6.738;2023-02-20T00:20:24;4.00;69.10
48589;DHT22;34369;51.174;6.738;2023-02-20T00:22:56;3.90;69.20
48589;DHT22;34369;51.174;6.738;2023-02-20T00:25:29;3.90;69.40
48589;DHT22;34369;51.174;6.738;2023-02-20T00:28:01;3.80;69.60
48589;DHT22;34369;51.174;6.738;2023-02-20T00:30:33;3.80;69.60
48589;DHT22;34369;51.174;6.738;2023-02-20T00:33:05;3.80;69.80
48589;DHT22;34369;51.174;6.738;2023-02-20T00:35:37;3.80;70.00
48589;DHT22;34369;51.174;6.738;2023-02-20T00:38:09;3.70;70.30
48589;DHT22;34369;51.174;6.738;2023-02-20T00:40:43;3.70;70.50
48589;DHT22;34369;51.174;6.738;2023-02-20T00:43:14;3.70;70.70
48589;DHT22;34369;51.174;6.738;2023-02-20T00:45:46;3.70;70.70
48589;DHT22;34369;51.174;6.738;2023-02-20T00:48:18;3.70;70.80
48589;DHT22;34369;51.174;6.738;2023-02-20T00:50:50;3.70;71.00
48589;DHT22;34369;51.174;6.738;2023-02-20T00:53:22;3.70;71.10
48589;DHT22;34369;51.174;6.738;2023-02-20T00:55:55;3.70;71.20
48589;DHT22;34369;51.174;6.738;2023-02-20T00:58:27;3.70;71.30
48589;DHT22;34369;51.174;6.738;2023-02-20T01:00:59;3.80;71.30
48589;DHT22;34369;51.174;6.738;2023-02-20T01:03:31;3.80;71.40
48589;DHT22;34369;51.174;6.738;2023-02-20T01:06:03;3.80;71.50
48589;DHT22;34369;51.174;6.738;2023-02-20T01:08:35;3.80;71.50
48589;DHT22;34369;51.174;6.738;2023-02-20T01:11:09;3.80;71.60
48589;DHT22;34369;51.174;6.738;2023-02-20T01:13:41;3.80;71.70
48589;DHT22;34369;51.174;6.738;2023-02-20T01:16:13;3.80;71.70
48589;DHT22;34369;51.174;6.738;2023-02-20T01:18:48;3.90;71.80
48589;DHT22;34369;51.174;6.738;2023-02-20T01:21:21;3.90;71.90
48589;DHT22;34369;51.174;6.738;2023-02-20T01:23:53;3.90;71.90
48589;DHT22;34369;51.174;6.738;2023-02-20T01:26:26;3.90;72.00
48589;DHT22;34369;51.174;6.738;2023-02-20T01:28:58;3.90;72.10
48589;DHT22;34369;51.174;6.738;2023-02-20T01:31:30;4.00;72.10
48589;DHT22;34369;51.174;6.738;2023-02-20T01:34:02;4.00;72.10
48589;DHT22;34369;51.174;6.738;2023-02-20T01:36:34;4.00;72.00
48589;DHT22;34369;51.174;6.738;2023-02-20T01:39:07;4.00;72.00
48589;DHT22;34369;51.174;6.738;2023-02-20T01:41:40;4.00;71.90
48589;DHT22;34369;51.174;6.738;2023-02-20T01:44:17;4.10;72.00
48589;DHT22;34369;51.174;6.738;2023-02-20T01:46:52;4.10;72.00
48589;DHT22;34369;51.174;6.738;2023-02-20T01:49:33;4.10;71.90
48589;DHT22;34369;51.174;6.738;2023-02-20T01:52:10;4.10;72.10
48589;DHT22;34369;51.174;6.738;2023-02-20T01:54:48;4.10;71.90
48589;DHT22;34369;51.174;6.738;2023-02-20T01:57:25;4.10;72.00
48589;DHT22;34369;51.174;6.738;2023-02-20T02:00:03;4.10;72.10
48589;DHT22;34369;51.174;6.738;2023-02-20T02:02:41;4.20;72.10
48589;DHT22;34369;51.174;6.738;2023-02-20T02:05:16;4.20;72.10
48589;DHT22;34369;51.174;6.738;2023-02-20T02:07:48;4.20;72.20
48589;DHT22;34369;51.174;6.738;2023-02-20T02:10:24;4.20;72.20
48589;DHT22;34369;51.174;6.738;2023-02-20T02:13:02;4.30;72.30
48589;DHT22;34369;51.174;6.738;2023-02-20T02:15:34;4.30;72.30
48589;DHT22;34369;51.174;6.738;2023-02-20T02:18:23;4.30;72.20
48589;DHT22;34369;51.174;6.738;2023-02-20T02:25:14;4.40;72.30
48589;DHT22;34369;51.174;6.738;2023-02-20T02:28:36;4.40;72.10
48589;DHT22;34369;51.174;6.738;2023-02-20T02:32:20;4.40;71.90
48589;DHT22;34369;51.174;6.738;2023-02-20T02:35:29;4.40;71.80
48589;DHT22;34369;51.174;6.738;2023-02-20T02:38:31;4.40;71.80
48589;DHT22;34369;51.174;6.738;2023-02-20T02:41:17;4.40;71.60
48589;DHT22;34369;51.174;6.738;2023-02-20T02:43:57;4.40;71.60
48589;DHT22;34369;51.174;6.738;2023-02-20T02:46:34;4.40;71.60
48589;DHT22;34369;51.174;6.738;2023-02-20T02:49:16;4.40;71.50
48589;DHT22;34369;51.174;6.738;2023-02-20T02:51:52;4.40;71.50
48589;DHT22;34369;51.174;6.738;2023-02-20T02:54:27;4.40;71.50
48589;DHT22;34369;51.174;6.738;2023-02-20T02:57:19;4.40;71.50
48589;DHT22;34369;51.174;6.738;2023-02-20T02:59:56;4.40;71.70
48589;DHT22;34369;51.174;6.738;2023-02-20T03:02:34;4.40;71.40
48589;DHT22;34369;51.174;6.738;2023-02-20T03:05:13;4.40;71.30
48589;DHT22;34369;51.174;6.738;2023-02-20T03:07:52;4.30;71.40
48589;DHT22;34369;51.174;6.738;2023-02-20T03:10:27;4.30;71.40
48589;DHT22;34369;51.174;6.738;2023-02-20T03:13:03;4.30;71.40
48589;DHT22;34369;51.174;6.738;2023-02-20T03:15:38;4.30;71.50
48589;DHT22;34369;51.174;6.738;2023-02-20T03:18:16;4.30;71.50
48589;DHT22;34369;51.174;6.738;2023-02-20T03:20:54;4.30;71.60
48589;DHT22;34369;51.174;6.738;2023-02-20T03:23:31;4.30;71.50
48589;DHT22;34369;51.174;6.738;2023-02-20T03:26:10;4.30;71.60
48589;DHT22;34369;51.174;6.738;2023-02-20T03:28:50;4.30;71.60
48589;DHT22;34369;51.174;6.738;2023-02-20T03:31:30;4.30;71.70
48589;DHT22;34369;51.174;6.738;2023-02-20T03:34:07;4.30;71.80
48589;DHT22;34369;51.174;6.738;2023-02-20T03:37:01;4.30;71.90
48589;DHT22;34369;51.174;6.738;2023-02-20T03:40:02;4.30;71.80
48589;DHT22;34369;51.174;6.738;2023-02-20T03:42:58;4.30;71.80
48589;DHT22;34369;51.174;6.738;2023-02-20T03:45:51;4.30;71.80
48589;DHT22;34369;51.174;6.738;2023-02-20T03:48:26;4.30;71.70
48589;DHT22;34369;51.174;6.738;2023-02-20T03:51:01;4.30;71.70
48589;DHT22;34369;51.174;6.738;2023-02-20T03:53:52;4.30;71.70
48589;DHT22;34369;51.174;6.738;2023-02-20T03:56:29;4.30;71.70
48589;DHT22;34369;51.174;6.738;2023-02-20T03:59:08;4.30;71.70
48589;DHT22;34369;51.174;6.738;2023-02-20T04:01:45;4.30;71.80
48589;DHT22;34369;51.174;6.738;2023-02-20T04:04:24;4.30;71.70
48589;DHT22;34369;51.174;6.738;2023-02-20T04:07:01;4.30;71.70
48589;DHT22;34369;51.174;6.738;2023-02-20T04:09:40;4.30;71.70
48589;DHT22;34369;51.174;6.738;2023-02-20T04:12:19;4.30;71.70
48589;DHT22;34369;51.174;6.738;2023-02-20T04:14:56;4.30;71.70
48589;DHT22;34369;51.174;6.738;2023-02-20T04:17:31;4.30;71.60
48589;DHT22;34369;51.174;6.738;2023-02-20T04:20:09;4.30;71.60
48589;DHT22;34369;51.174;6.738;2023-02-20T04:22:43;4.30;71.50
48589;DHT22;34369;51.174;6.738;2023-02-20T04:25:23;4.30;71.50
48589;DHT22;34369;51.174;6.738;2023-02-20T04:27:56;4.30;71.60
48589;DHT22;34369;51.174;6.738;2023-02-20T04:30:29;4.30;71.60
48589;DHT22;34369;51.174;6.738;2023-02-20T04:33:02;4.30;71.60
48589;DHT22;34369;51.174;6.738;2023-02-20T04:35:34;4.30;71.60
48589;DHT22;34369;51.174;6.738;2023-02-20T04:38:06;4.30;71.50
48589;DHT22;34369;51.174;6.738;2023-02-20T04:40:38;4.30;71.50
48589;DHT22;34369;51.174;6.738;2023-02-20T04:43:10;4.30;71.50
48589;DHT22;34369;51.174;6.738;2023-02-20T04:45:44;4.30;71.60
48589;DHT22;34369;51.174;6.738;2023-02-20T04:48:17;4.30;71.60
48589;DHT22;34369;51.174;6.738;2023-02-20T04:50:49;4.30;71.50
48589;DHT22;34369;51.174;6.738;2023-02-20T04:53:21;4.30;71.60
48589;DHT22;34369;51.174;6.738;2023-02-20T04:55:53;4.30;71.50
48589;DHT22;34369;51.174;6.738;2023-02-20T04:58:25;4.30;71.50
48589;DHT22;34369;51.174;6.738;2023-02-20T05:00:58;4.30;71.50
48589;DHT22;34369;51.174;6.738;2023-02-20T05:03:30;4.30;71.50
48589;DHT22;34369;51.174;6.738;2023-02-20T05:06:02;4.30;71.50
48589;DHT22;34369;51.174;6.738;2023-02-20T05:08:34;4.30;71.50
48589;DHT22;34369;51.174;6.738;2023-02-20T05:11:07;4.30;71.30
48589;DHT22;34369;51.174;6.738;2023-02-20T05:13:43;4.30;71.20
48589;DHT22;34369;51.174;6.738;2023-02-20T05:16:16;4.30;71.20
48589;DHT22;34369;51.174;6.738;2023-02-20T05:18:49;4.20;71.20
48589;DHT22;34369;51.174;6.738;2023-02-20T05:21:21;4.20;71.20
48589;DHT22;34369;51.174;6.738;2023-02-20T05:24:11;4.20;71.20
48589;DHT22;34369;51.174;6.738;2023-02-20T05:26:43;4.20;71.30
48589;DHT22;34369;51.174;6.738;2023-02-20T05:29:15;4.20;71.20
48589;DHT22;34369;51.174;6.738;2023-02-20T05:31:49;4.20;71.30
48589;DHT22;34369;51.174;6.738;2023-02-20T05:34:21;4.20;71.40
48589;DHT22;34369;51.174;6.738;2023-02-20T05:36:55;4.20;71.40
48589;DHT22;34369;51.174;6.738;2023-02-20T05:39:27;4.10;71.50
48589;DHT22;34369;51.174;6.738;2023-02-20T05:41:59;4.10;71.50
48589;DHT22;34369;51.174;6.738;2023-02-20T05:44:31;4.10;71.60
48589;DHT22;34369;51.174;6.738;2023-02-20T05:47:04;4.10;71.70
48589;DHT22;34369;51.174;6.738;2023-02-20T05:49:37;4.20;71.80
48589;DHT22;34369;51.174;6.738;2023-02-20T05:52:11;4.20;71.80
48589;DHT22;34369;51.174;6.738;2023-02-20T05:54:45;4.10;71.90
48589;DHT22;34369;51.174;6.738;2023-02-20T05:57:17;4.20;72.00
48589;DHT22;34369;51.174;6.738;2023-02-20T05:59:49;4.20;72.20
48589;DHT22;34369;51.174;6.738;2023-02-20T06:02:30;4.20;72.20
48589;DHT22;34369;51.174;6.738;2023-02-20T06:05:11;4.20;72.30
48589;DHT22;34369;51.174;6.738;2023-02-20T06:07:44;4.30;72.20
48589;DHT22;34369;51.174;6.738;2023-02-20T06:10:18;4.30;72.30
48589;DHT22;34369;51.174;6.738;2023-02-20T06:12:50;4.30;72.40
48589;DHT22;34369;51.174;6.738;2023-02-20T06:15:22;4.40;72.40
48589;DHT22;34369;51.174;6.738;2023-02-20T06:17:55;4.40;72.30
48589;DHT22;34369;51.174;6.738;2023-02-20T06:20:27;4.40;72.20
48589;DHT22;34369;51.174;6.738;2023-02-20T06:22:59;4.40;72.20
48589;DHT22;34369;51.174;6.738;2023-02-20T06:25:33;4.40;72.10
48589;DHT22;34369;51.174;6.738;2023-02-20T06:28:05;4.50;72.20
48589;DHT22;34369;51.174;6.738;2023-02-20T06:30:37;4.50;72.30
48589;DHT22;34369;51.174;6.738;2023-02-20T06:33:18;4.50;72.40
48589;DHT22;34369;51.174;6.738;2023-02-20T06:35:50;4.50;72.70
48589;DHT22;34369;51.174;6.738;2023-02-20T06:38:22;4.60;72.50
48589;DHT22;34369;51.174;6.738;2023-02-20T06:40:54;4.70;72.60
48589;DHT22;34369;51.174;6.738;2023-02-20T06:43:26;4.70;72.60
48589;DHT22;34369;51.174;6.738;2023-02-20T06:45:58;4.70;72.60
48589;DHT22;34369;51.174;6.738;2023-02-20T06:48:32;4.70;72.50
48589;DHT22;34369;51.174;6.738;2023-02-20T06:51:04;4.80;72.50
48589;DHT22;34369;51.174;6.738;2023-02-20T06:53:36;4.90;72.50
48589;DHT22;34369;51.174;6.738;2023-02-20T06:56:14;4.90;72.30
48589;DHT22;34369;51.174;6.738;2023-02-20T06:58:49;4.90;72.10
48589;DHT22;34369;51.174;6.738;2023-02-20T07:01:24;5.00;71.90
48589;DHT22;34369;51.174;6.738;2023-02-20T07:03:59;5.00;71.80
48589;DHT22;34369;51.174;6.738;2023-02-20T07:06:31;5.00;71.70
48589;DHT22;34369;51.174;6.738;2023-02-20T07:09:03;5.00;71.60
48589;DHT22;34369;51.174;6.738;2023-02-20T07:11:36;5.00;71.50
48589;DHT22;34369;51.174;6.738;2023-02-20T07:14:08;5.00;71.30
48589;DHT22;34369;51.174;6.738;2023-02-20T07:16:41;5.10;71.40
48589;DHT22;34369;51.174;6.738;2023-02-20T07:19:14;5.10;71.20
48589;DHT22;34369;51.174;6.738;2023-02-20T07:21:47;5.10;71.20
48589;DHT22;34369;51.174;6.738;2023-02-20T07:24:20;5.10;71.20
48589;DHT22;34369;51.174;6.738;2023-02-20T07:26:52;5.10;71.20
48589;DHT22;34369;51.174;6.738;2023-02-20T07:29:24;5.10;71.10
48589;DHT22;34369;51.174;6.738;2023-02-20T07:32:14;5.20;71.00
48589;DHT22;34369;51.174;6.738;2023-02-20T07:34:54;5.20;70.90
48589;DHT22;34369;51.174;6.738;2023-02-20T07:37:28;5.20;70.90
48589;DHT22;34369;51.174;6.738;2023-02-20T07:40:00;5.20;70.90
48589;DHT22;34369;51.174;6.738;2023-02-20T07:42:32;5.30;71.00
48589;DHT22;34369;51.174;6.738;2023-02-20T07:45:05;5.30;70.90
48589;DHT22;34369;51.174;6.738;2023-02-20T07:47:37;5.30;70.80
48589;DHT22;34369;51.174;6.738;2023-02-20T07:50:12;5.30;70.80
48589;DHT22;34369;51.174;6.738;2023-02-20T07:52:45;5.30;70.80
48589;DHT22;34369;51.174;6.738;2023-02-20T07:55:18;5.30;70.80
48589;DHT22;34369;51.174;6.738;2023-02-20T07:57:51;5.30;70.80
48589;DHT22;34369;51.174;6.738;2023-02-20T08:00:27;5.40;70.80
48589;DHT22;34369;51.174;6.738;2023-02-20T08:03:00;5.40;70.70
48589;DHT22;34369;51.174;6.738;2023-02-20T08:05:33;5.50;70.60
48589;DHT22;34369;51.174;6.738;2023-02-20T08:08:05;5.50;70.60
48589;DHT22;34369;51.174;6.738;2023-02-20T08:10:37;5.50;70.50
48589;DHT22;34369;51.174;6.738;2023-02-20T08:13:09;5.50;70.50
48589;DHT22;34369;51.174;6.738;2023-02-20T08:15:41;5.50;70.30
48589;DHT22;34369;51.174;6.738;2023-02-20T08:18:14;5.60;70.30
48589;DHT22;34369;51.174;6.738;2023-02-20T08:20:48;5.60;70.10
48589;DHT22;34369;51.174;6.738;2023-02-20T08:23:23;5.60;70.10
48589;DHT22;34369;51.174;6.738;2023-02-20T08:25:56;5.60;70.10
48589;DHT22;34369;51.174;6.738;2023-02-20T08:28:29;5.70;69.90
48589;DHT22;34369;51.174;6.738;2023-02-20T08:31:02;5.70;69.90
48589;DHT22;34369;51.174;6.738;2023-02-20T08:33:34;5.70;69.90
48589;DHT22;34369;51.174;6.738;2023-02-20T08:36:08;5.70;69.80
48589;DHT22;34369;51.174;6.738;2023-02-20T08:38:40;5.80;69.70
48589;DHT22;34369;51.174;6.738;2023-02-20T08:41:13;5.80;69.50
48589;DHT22;34369;51.174;6.738;2023-02-20T08:43:45;5.80;69.40
48589;DHT22;34369;51.174;6.738;2023-02-20T08:46:17;5.80;69.40
48589;DHT22;34369;51.174;6.738;2023-02-20T08:48:50;5.90;69.50
48589;DHT22;34369;51.174;6.738;2023-02-20T08:51:23;5.90;69.40
48589;DHT22;34369;51.174;6.738;2023-02-20T08:53:56;6.00;69.40
48589;DHT22;34369;51.174;6.738;2023-02-20T08:56:27;6.00;69.20
48589;DHT22;34369;51.174;6.738;2023-02-20T08:59:00;6.00;69.10
48589;DHT22;34369;51.174;6.738;2023-02-20T09:01:32;6.00;69.00
48589;DHT22;34369;51.174;6.738;2023-02-20T09:04:04;6.00;69.00
48589;DHT22;34369;51.174;6.738;2023-02-20T09:06:39;6.10;69.20
48589;DHT22;34369;51.174;6.738;2023-02-20T09:09:11;6.10;69.20
48589;DHT22;34369;51.174;6.738;2023-02-20T09:11:43;6.10;69.30
48589;DHT22;34369;51.174;6.738;2023-02-20T09:14:16;6.10;69.20
48589;DHT22;34369;51.174;6.738;2023-02-20T09:16:51;6.20;69.30
48589;DHT22;34369;51.174;6.738;2023-02-20T09:19:23;6.30;69.10
48589;DHT22;34369;51.174;6.738;2023-02-20T09:21:57;6.30;69.00
48589;DHT22;34369;51.174;6.738;2023-02-20T09:24:29;6.30;69.00
48589;DHT22;34369;51.174;6.738;2023-02-20T09:27:03;6.40;69.00
48589;DHT22;34369;51.174;6.738;2023-02-20T09:29:36;6.40;69.10
48589;DHT22;34369;51.174;6.738;2023-02-20T09:32:10;6.50;69.00
48589;DHT22;34369;51.174;6.738;2023-02-20T09:34:43;6.50;68.70
48589;DHT22;34369;51.174;6.738;2023-02-20T09:37:16;6.50;68.70
48589;DHT22;34369;51.174;6.738;2023-02-20T09:39:48;6.50;68.70
48589;DHT22;34369;51.174;6.738;2023-02-20T09:42:29;6.60;68.70
48589;DHT22;34369;51.174;6.738;2023-02-20T09:45:08;6.60;68.40
48589;DHT22;34369;51.174;6.738;2023-02-20T09:47:53;6.70;68.20
48589;DHT22;34369;51.174;6.738;2023-02-20T09:50:35;6.70;68.10
48589;DHT22;34369;51.174;6.738;2023-02-20T09:53:19;6.70;68.40
48589;DHT22;34369;51.174;6.738;2023-02-20T09:55:54;6.70;68.20
48589;DHT22;34369;51.174;6.738;2023-02-20T09:58:36;6.80;68.40
48589;DHT22;34369;51.174;6.738;2023-02-20T10:01:15;6.80;68.10
48589;DHT22;34369;51.174;6.738;2023-02-20T10:03:54;6.90;68.10
48589;DHT22;34369;51.174;6.738;2023-02-20T10:06:29;6.90;68.00
48589;DHT22;34369;51.174;6.738;2023-02-20T10:09:05;6.90;68.00
48589;DHT22;34369;51.174;6.738;2023-02-20T10:12:03;6.90;67.90
48589;DHT22;34369;51.174;6.738;2023-02-20T10:14:52;6.90;67.70
48589;DHT22;34369;51.174;6.738;2023-02-20T10:17:49;7.00;67.70
48589;DHT22;34369;51.174;6.738;2023-02-20T10:20:32;7.00;67.60
48589;DHT22;34369;51.174;6.738;2023-02-20T10:23:15;7.00;67.60
48589;DHT22;34369;51.174;6.738;2023-02-20T10:25:54;7.00;67.70
48589;DHT22;34369;51.174;6.738;2023-02-20T10:28:27;7.10;67.60
48589;DHT22;34369;51.174;6.738;2023-02-20T10:31:05;7.10;67.90
48589;DHT22;34369;51.174;6.738;2023-02-20T10:33:46;7.10;68.00
48589;DHT22;34369;51.174;6.738;2023-02-20T10:36:24;7.20;67.90
48589;DHT22;34369;51.174;6.738;2023-02-20T10:39:03;7.20;67.80
48589;DHT22;34369;51.174;6.738;2023-02-20T10:41:42;7.30;67.80
48589;DHT22;34369;51.174;6.738;2023-02-20T10:44:19;7.30;67.70
48589;DHT22;34369;51.174;6.738;2023-02-20T10:46:58;7.50;67.90
48589;DHT22;34369;51.174;6.738;2023-02-20T10:49:36;7.50;67.80
48589;DHT22;34369;51.174;6.738;2023-02-20T10:52:16;7.50;67.30
48589;DHT22;34369;51.174;6.738;2023-02-20T10:54:54;7.50;67.40
48589;DHT22;34369;51.174;6.738;2023-02-20T10:57:37;7.60;67.10
48589;DHT22;34369;51.174;6.738;2023-02-20T11:00:16;7.60;66.70
48589;DHT22;34369;51.174;6.738;2023-02-20T11:02:55;7.60;66.90
48589;DHT22;34369;51.174;6.738;2023-02-20T11:05:34;7.70;66.50
48589;DHT22;34369;51.174;6.738;2023-02-20T11:08:09;7.70;66.60
48589;DHT22;34369;51.174;6.738;2023-02-20T11:10:41;7.70;66.70
48589;DHT22;34369;51.174;6.738;2023-02-20T11:13:19;7.70;66.80
48589;DHT22;34369;51.174;6.738;2023-02-20T11:15:55;7.70;66.90
48589;DHT22;34369;51.174;6.738;2023-02-20T11:18:34;7.70;66.80
48589;DHT22;34369;51.174;6.738;2023-02-20T11:21:07;7.80;66.80
48589;DHT22;34369;51.174;6.738;2023-02-20T11:23:41;7.80;66.80
48589;DHT22;34369;51.174;6.738;2023-02-20T11:26:24;7.90;66.70
48589;DHT22;34369;51.174;6.738;2023-02-20T11:29:05;7.90;66.60
48589;DHT22;34369;51.174;6.738;2023-02-20T11:31:43;8.00;66.60
48589;DHT22;34369;51.174;6.738;2023-02-20T11:34:20;8.00;66.40
48589;DHT22;34369;51.174;6.738;2023-02-20T11:36:55;8.00;66.30
48589;DHT22;34369;51.174;6.738;2023-02-20T11:39:37;8.10;66.20
48589;DHT22;34369;51.174;6.738;2023-02-20T11:42:11;8.10;65.80
48589;DHT22;34369;51.174;6.738;2023-02-20T11:45:11;8.10;65.70
48589;DHT22;34369;51.174;6.738;2023-02-20T11:47:45;8.10;65.20
48589;DHT22;34369;51.174;6.738;2023-02-20T11:50:18;8.20;65.50
48589;DHT22;34369;51.174;6.738;2023-02-20T11:52:57;8.10;65.70
48589;DHT22;34369;51.174;6.738;2023-02-20T11:55:32;8.10;65.60
48589;DHT22;34369;51.174;6.738;2023-02-20T11:58:18;8.10;65.60
48589;DHT22;34369;51.174;6.738;2023-02-20T12:00:54;8.10;65.70
48589;DHT22;34369;51.174;6.738;2023-02-20T12:03:28;8.10;65.70
48589;DHT22;34369;51.174;6.738;2023-02-20T12:06:32;8.20;65.70
48589;DHT22;34369;51.174;6.738;2023-02-20T12:09:12;8.20;65.40
48589;DHT22;34369;51.174;6.738;2023-02-20T12:11:48;8.20;65.40
48589;DHT22;34369;51.174;6.738;2023-02-20T12:14:21;8.20;65.40
48589;DHT22;34369;51.174;6.738;2023-02-20T12:17:05;8.10;65.40
48589;DHT22;34369;51.174;6.738;2023-02-20T12:19:50;8.20;65.40
48589;DHT22;34369;51.174;6.738;2023-02-20T12:22:30;8.20;65.40
48589;DHT22;34369;51.174;6.738;2023-02-20T12:25:19;8.20;65.40
48589;DHT22;34369;51.174;6.738;2023-02-20T12:28:06;8.20;65.10
48589;DHT22;34369;51.174;6.738;2023-02-20T12:30:50;8.20;65.60
48589;DHT22;34369;51.174;6.738;2023-02-20T12:36:36;8.20;65.50
48589;DHT22;34369;51.174;6.738;2023-02-20T12:39:18;8.20;65.30
48589;DHT22;34369;51.174;6.738;2023-02-20T12:42:04;8.20;65.10
48589;DHT22;34369;51.174;6.738;2023-02-20T12:44:53;8.20;65.20
48589;DHT22;34369;51.174;6.738;2023-02-20T12:47:42;8.20;65.30
48589;DHT22;34369;51.174;6.738;2023-02-20T12:50:38;8.20;65.20
48589;DHT22;34369;51.174;6.738;2023-02-20T12:53:31;8.20;65.10
48589;DHT22;34369;51.174;6.738;2023-02-20T12:56:22;8.10;65.30
48589;DHT22;34369;51.174;6.738;2023-02-20T12:59:06;8.10;65.40
48589;DHT22;34369;51.174;6.738;2023-02-20T13:01:42;8.10;65.50
48589;DHT22;34369;51.174;6.738;2023-02-20T13:04:21;8.10;65.60
48589;DHT22;34369;51.174;6.738;2023-02-20T13:07:02;8.00;65.70
48589;DHT22;34369;51.174;6.738;2023-02-20T13:09:38;8.00;65.80
48589;DHT22;34369;51.174;6.738;2023-02-20T13:12:15;8.00;65.80
48589;DHT22;34369;51.174;6.738;2023-02-20T13:14:54;8.00;66.10
48589;DHT22;34369;51.174;6.738;2023-02-20T13:17:37;7.90;66.10
48589;DHT22;34369;51.174;6.738;2023-02-20T13:20:17;7.90;66.20
48589;DHT22;34369;51.174;6.738;2023-02-20T13:23:02;7.90;66.40
48589;DHT22;34369;51.174;6.738;2023-02-20T13:25:41;7.90;66.50
48589;DHT22;34369;51.174;6.738;2023-02-20T13:28:28;7.90;66.50
48589;DHT22;34369;51.174;6.738;2023-02-20T13:31:15;7.90;66.70
48589;DHT22;34369;51.174;6.738;2023-02-20T13:33:49;7.90;66.60
48589;DHT22;34369;51.174;6.738;2023-02-20T13:36:40;8.00;66.70
48589;DHT22;34369;51.174;6.738;2023-02-20T13:39:45;8.00;66.60
48589;DHT22;34369;51.174;6.738;2023-02-20T13:42:32;8.00;66.80
48589;DHT22;34369;51.174;6.738;2023-02-20T13:45:36;8.00;66.80
48589;DHT22;34369;51.174;6.738;2023-02-20T13:48:18;7.90;66.90
48589;DHT22;34369;51.174;6.738;2023-02-20T13:54:22;8.00;67.20
48589;DHT22;34369;51.174;6.738;2023-02-20T13:56:59;8.00;67.10
48589;DHT22;34369;51.174;6.738;2023-02-20T13:59:34;8.00;67.10
48589;DHT22;34369;51.174;6.738;2023-02-20T14:02:16;8.10;67.20
48589;DHT22;34369;51.174;6.738;2023-02-20T14:04:55;8.10;67.20
48589;DHT22;34369;51.174;6.738;2023-02-20T14:07:33;8.20;67.10
48589;DHT22;34369;51.174;6.738;2023-02-20T14:10:16;8.10;67.10
48589;DHT22;34369;51.174;6.738;2023-02-20T14:12:56;8.20;67.10
48589;DHT22;34369;51.174;6.738;2023-02-20T14:15:33;8.20;67.10
48589;DHT22;34369;51.174;6.738;2023-02-20T14:18:19;8.20;67.20
48589;DHT22;34369;51.174;6.738;2023-02-20T14:20:57;8.20;67.10
48589;DHT22;34369;51.174;6.738;2023-02-20T14:23:30;8.20;66.90
48589;DHT22;34369;51.174;6.738;2023-02-20T14:26:17;8.20;66.80
48589;DHT22;34369;51.174;6.738;2023-02-20T14:28:53;8.20;66.90
48589;DHT22;34369;51.174;6.738;2023-02-20T14:31:30;8.20;66.90
48589;DHT22;34369;51.174;6.738;2023-02-20T14:34:07;8.20;67.00
48589;DHT22;34369;51.174;6.738;2023-02-20T14:36:51;8.20;67.00
48589;DHT22;34369;51.174;6.738;2023-02-20T14:39:39;8.20;67.20
48589;DHT22;34369;51.174;6.738;2023-02-20T14:42:19;8.20;67.00
48589;DHT22;34369;51.174;6.738;2023-02-20T14:44:59;8.20;67.00
48589;DHT22;34369;51.174;6.738;2023-02-20T14:47:32;8.20;67.10
48589;DHT22;34369;51.174;6.738;2023-02-20T14:50:15;8.10;67.10
48589;DHT22;34369;51.174;6.738;2023-02-20T14:53:00;8.20;67.20
48589;DHT22;34369;51.174;6.738;2023-02-20T14:55:32;8.10;67.30
48589;DHT22;34369;51.174;6.738;2023-02-20T14:58:05;8.10;67.20
48589;DHT22;34369;51.174;6.738;2023-02-20T15:00:40;8.10;67.20
48589;DHT22;34369;51.174;6.738;2023-02-20T15:03:19;8.10;67.30
48589;DHT22;34369;51.174;6.738;2023-02-20T15:05:53;8.10;67.30
48589;DHT22;34369;51.174;6.738;2023-02-20T15:08:30;8.10;67.20
48589;DHT22;34369;51.174;6.738;2023-02-20T15:11:07;8.10;67.20
48589;DHT22;34369;51.174;6.738;2023-02-20T15:13:42;8.10;67.20
48589;DHT22;34369;51.174;6.738;2023-02-20T15:16:20;8.10;67.20
48589;DHT22;34369;51.174;6.738;2023-02-20T15:18:54;8.00;67.30
48589;DHT22;34369;51.174;6.738;2023-02-20T15:21:34;8.00;67.30
48589;DHT22;34369;51.174;6.738;2023-02-20T15:24:36;8.00;67.40
48589;DHT22;34369;51.174;6.738;2023-02-20T15:27:14;8.00;67.40
48589;DHT22;34369;51.174;6.738;2023-02-20T15:30:06;8.00;67.40
48589;DHT22;34369;51.174;6.738;2023-02-20T15:32:49;8.00;67.50
48589;DHT22;34369;51.174;6.738;2023-02-20T15:35:25;8.00;67.50
48589;DHT22;34369;51.174;6.738;2023-02-20T15:38:01;8.00;67.60
48589;DHT22;34369;51.174;6.738;2023-02-20T15:40:33;8.00;67.60
48589;DHT22;34369;51.174;6.738;2023-02-20T15:43:09;8.00;67.70
48589;DHT22;34369;51.174;6.738;2023-02-20T15:45:42;8.00;67.70
48589;DHT22;34369;51.174;6.738;2023-02-20T15:48:15;8.00;67.60
48589;DHT22;34369;51.174;6.738;2023-02-20T15:50:48;8.10;67.40
48589;DHT22;34369;51.174;6.738;2023-02-20T15:53:22;8.10;67.40
48589;DHT22;34369;51.174;6.738;2023-02-20T15:55:58;8.10;67.40
48589;DHT22;34369;51.174;6.738;2023-02-20T15:58:33;8.10;67.50
48589;DHT22;34369;51.174;6.738;2023-02-20T16:01:08;8.00;67.40
48589;DHT22;34369;51.174;6.738;2023-02-20T16:03:42;8.10;67.50
48589;DHT22;34369;51.174;6.738;2023-02-20T16:06:15;8.00;67.40
48589;DHT22;34369;51.174;6.738;2023-02-20T16:08:49;8.00;67.50
48589;DHT22;34369;51.174;6.738;2023-02-20T16:11:23;8.00;67.50
48589;DHT22;34369;51.174;6.738;2023-02-20T16:13:58;8.10;67.50
48589;DHT22;34369;51.174;6.738;2023-02-20T16:16:32;8.10;67.50
48589;DHT22;34369;51.174;6.738;2023-02-20T16:19:11;8.10;67.40
48589;DHT22;34369;51.174;6.738;2023-02-20T16:21:45;8.10;67.50
48589;DHT22;34369;51.174;6.738;2023-02-20T16:24:18;8.10;67.50
48589;DHT22;34369;51.174;6.738;2023-02-20T16:26:51;8.10;67.50
48589;DHT22;34369;51.174;6.738;2023-02-20T16:29:29;8.10;67.50
48589;DHT22;34369;51.174;6.738;2023-02-20T16:32:17;8.10;67.50
48589;DHT22;34369;51.174;6.738;2023-02-20T16:34:53;8.10;67.50
48589;DHT22;34369;51.174;6.738;2023-02-20T16:37:26;8.10;67.40
48589;DHT22;34369;51.174;6.738;2023-02-20T16:39:59;8.10;67.40
48589;DHT22;34369;51.174;6.738;2023-02-20T16:42:32;8.10;67.30
48589;DHT22;34369;51.174;6.738;2023-02-20T16:45:12;8.10;67.40
48589;DHT22;34369;51.174;6.738;2023-02-20T16:47:48;8.10;67.50
48589;DHT22;34369;51.174;6.738;2023-02-20T16:50:25;8.10;67.30
48589;DHT22;34369;51.174;6.738;2023-02-20T16:52:59;8.10;67.30
48589;DHT22;34369;51.174;6.738;2023-02-20T16:55:34;8.10;67.40
48589;DHT22;34369;51.174;6.738;2023-02-20T16:58:07;8.10;67.30